Terminal Aerodrome Forecast
Issued by NWS Binghamton, NY

Home | Current Version | Previous Version | Text Only | Print | Product List | Glossary On
Versions: 1 2 3 4 5 6 7 8 9 10 11 12 13 14 15
471
FTUS41 KBGM 292045 AAD
TAFBGM
TAF AMD
KBGM 292045Z 2921/3018 31012G25KT P6SM SCT050 SCT090
     FM292200 21005KT P6SM SCT050 BKN080
      TEMPO 2923/3003 TSRA BKN050CB
     FM300500 VRB03KT P6SM SCT025 OVC035
     FM300800 19005KT P6SM OVC045
     FM301600 26010KT P6SM SCT100 OVC250=

USA.gov is the U.S. government's official web portal to all federal, state and local government web resources and services.